ADDS METAR Data INFO
IDs: Format: Raw Decoded Include TAF

Data at: 2242 UTC 21 Nov 2017

METAR for:KVTA (Newark/Heath Arpt, OH, US)
Text:KVTA 212154Z AUTO 24007KT 10SM CLR 12/M02 A2992 RMK AO2 SLP135 T01171017
Temperature: 11.7°C ( 53°F)
Dewpoint: -1.7°C ( 29°F) [RH = 39%]
Pressure (altimeter):29.92 inches Hg (1013.3 mb) [Sea level pressure: 1013.5 mb]
Winds:from the WSW (240 degrees) at 8 MPH (7 knots; 3.6 m/s)
Visibility:10 or more sm (16+ km)
Ceiling:at least 12,000 feet AGL
Clouds:sky clear below 12,000 feet AGL
QC Flag:automated observation with no human augmentation